createdAt,value
2023-05-01T00:01:48.397Z,16.40
2023-05-01T00:04:17.172Z,16.40
2023-05-01T00:06:47.383Z,16.30
2023-05-01T00:09:16.477Z,16.30
2023-05-01T00:11:46.047Z,16.30
2023-05-01T00:14:14.418Z,16.30
2023-05-01T00:16:43.075Z,16.30
2023-05-01T00:19:12.776Z,16.20
2023-05-01T00:21:41.565Z,16.20
2023-05-01T00:24:11.412Z,16.20
2023-05-01T00:26:39.786Z,16.20
2023-05-01T00:29:08.745Z,16.20
2023-05-01T00:31:37.655Z,16.10
2023-05-01T00:34:06.213Z,16.10
2023-05-01T00:36:34.774Z,16.10
2023-05-01T00:39:03.409Z,16.10
2023-05-01T00:41:33.153Z,16.00
2023-05-01T00:44:01.587Z,16.00
2023-05-01T00:46:31.154Z,16.00
2023-05-01T00:48:59.989Z,16.00
2023-05-01T00:51:31.330Z,16.00
2023-05-01T00:54:01.514Z,15.90
2023-05-01T00:56:30.556Z,15.90
2023-05-01T00:59:02.214Z,15.80
2023-05-01T01:01:31.725Z,15.90
2023-05-01T01:04:00.343Z,15.80
2023-05-01T01:06:37.554Z,15.80
2023-05-01T01:09:24.824Z,15.70
2023-05-01T01:12:05.045Z,15.70
2023-05-01T01:14:43.872Z,15.70
2023-05-01T01:17:27.013Z,15.70
2023-05-01T01:20:19.943Z,15.60
2023-05-01T01:22:55.478Z,15.60
2023-05-01T01:26:01.580Z,15.60
2023-05-01T01:29:23.715Z,15.60
2023-05-01T01:32:05.767Z,15.60
2023-05-01T01:34:37.753Z,15.50
2023-05-01T01:37:13.813Z,15.50
2023-05-01T01:39:49.961Z,15.40
2023-05-01T01:42:23.128Z,15.40
2023-05-01T01:44:56.040Z,15.40
2023-05-01T01:47:29.337Z,15.40
2023-05-01T01:50:02.458Z,15.30
2023-05-01T01:52:32.865Z,15.30
2023-05-01T01:55:07.661Z,15.30
2023-05-01T01:57:37.953Z,15.30
2023-05-01T02:00:08.964Z,15.30
2023-05-01T02:02:42.712Z,15.30
2023-05-01T02:05:16.603Z,15.20
2023-05-01T02:07:48.785Z,15.20
2023-05-01T02:10:19.362Z,15.10
2023-05-01T02:12:49.816Z,15.10
2023-05-01T02:15:20.382Z,15.10
2023-05-01T02:17:51.327Z,15.10
2023-05-01T02:20:22.738Z,15.10
2023-05-01T02:22:53.725Z,15.10
2023-05-01T02:25:22.414Z,15.00
2023-05-01T02:27:58.019Z,15.00
2023-05-01T02:30:26.436Z,15.00
2023-05-01T02:32:55.164Z,15.00
2023-05-01T02:35:25.050Z,15.00
2023-05-01T02:37:53.711Z,15.00
2023-05-01T02:40:22.514Z,15.00
2023-05-01T02:42:53.240Z,15.00
2023-05-01T02:45:26.776Z,15.00
2023-05-01T02:48:00.061Z,15.00
2023-05-01T02:50:31.418Z,15.00
2023-05-01T02:53:00.397Z,14.90
2023-05-01T02:55:45.982Z,14.90
2023-05-01T02:58:17.805Z,14.90
2023-05-01T03:00:47.181Z,14.90
2023-05-01T03:03:15.872Z,14.90
2023-05-01T03:05:45.891Z,14.90
2023-05-01T03:08:14.395Z,14.90
2023-05-01T03:10:43.695Z,14.90
2023-05-01T03:13:12.676Z,14.90
2023-05-01T03:15:41.336Z,14.90
2023-05-01T03:18:10.033Z,14.90
2023-05-01T03:20:38.557Z,14.90
2023-05-01T03:23:09.230Z,14.90
2023-05-01T03:25:38.888Z,14.90
2023-05-01T03:28:07.418Z,14.90
2023-05-01T03:30:36.317Z,14.90
2023-05-01T03:33:05.150Z,14.80
2023-05-01T03:35:34.953Z,14.90
2023-05-01T03:38:08.803Z,14.80
2023-05-01T03:40:56.011Z,14.90
2023-05-01T03:43:42.992Z,14.90
2023-05-01T03:46:21.896Z,14.80
2023-05-01T03:48:50.657Z,14.80
2023-05-01T03:51:19.425Z,14.80
2023-05-01T03:53:49.706Z,14.90
2023-05-01T03:56:18.783Z,14.80
2023-05-01T03:58:47.433Z,14.80
2023-05-01T04:01:15.903Z,14.80
2023-05-01T04:03:46.612Z,14.80
2023-05-01T04:06:17.273Z,14.80
2023-05-01T04:08:46.134Z,14.80
2023-05-01T04:11:16.034Z,14.80
2023-05-01T04:13:44.578Z,14.80
2023-05-01T04:16:13.800Z,14.80
2023-05-01T04:18:42.611Z,14.80
2023-05-01T04:21:11.309Z,14.70
2023-05-01T04:23:41.630Z,14.70
2023-05-01T04:26:10.360Z,14.70
2023-05-01T04:28:40.291Z,14.70
2023-05-01T04:31:11.509Z,14.70
2023-05-01T04:33:39.990Z,14.70
2023-05-01T04:36:08.896Z,14.70
2023-05-01T04:38:38.196Z,14.70
2023-05-01T04:41:07.299Z,14.60
2023-05-01T04:43:35.860Z,14.70
2023-05-01T04:46:06.653Z,14.60
2023-05-01T04:48:35.933Z,14.60
2023-05-01T04:51:04.933Z,14.60
2023-05-01T04:53:36.510Z,14.60
2023-05-01T04:56:07.364Z,14.60
2023-05-01T04:58:35.931Z,14.60
2023-05-01T05:01:12.100Z,14.60
2023-05-01T05:03:41.372Z,14.60
2023-05-01T05:06:11.656Z,14.60
2023-05-01T05:08:40.213Z,14.60
2023-05-01T05:11:12.333Z,14.60
2023-05-01T05:13:57.246Z,14.60
2023-05-01T05:16:28.206Z,14.60
2023-05-01T05:18:57.951Z,14.60
2023-05-01T05:21:28.875Z,14.70
2023-05-01T05:23:59.228Z,14.70
2023-05-01T05:26:28.875Z,14.70
2023-05-01T05:29:00.332Z,14.70
2023-05-01T05:31:30.716Z,14.70
2023-05-01T05:33:59.320Z,14.70
2023-05-01T05:36:28.768Z,14.70
2023-05-01T05:38:57.381Z,14.80
2023-05-01T05:41:27.101Z,14.80
2023-05-01T05:43:59.920Z,14.80
2023-05-01T05:46:31.258Z,14.80
2023-05-01T05:48:59.926Z,14.80
2023-05-01T05:51:29.622Z,14.80
2023-05-01T05:53:58.357Z,14.90
2023-05-01T05:56:27.193Z,14.90
2023-05-01T05:58:55.732Z,14.90
2023-05-01T06:01:24.438Z,14.90
2023-05-01T06:03:54.540Z,14.90
2023-05-01T06:06:25.118Z,14.90
2023-05-01T06:08:53.693Z,15.00
2023-05-01T06:11:23.247Z,15.00
2023-05-01T06:13:51.996Z,15.00
2023-05-01T06:16:20.613Z,15.00
2023-05-01T06:18:49.705Z,15.10
2023-05-01T06:21:19.929Z,15.10
2023-05-01T06:23:48.416Z,15.20
2023-05-01T06:26:41.181Z,15.20
2023-05-01T06:29:09.645Z,15.30
2023-05-01T06:31:38.134Z,15.30
2023-05-01T06:34:06.635Z,15.30
2023-05-01T06:36:55.951Z,15.40
2023-05-01T06:39:25.169Z,15.40
2023-05-01T06:41:54.494Z,15.50
2023-05-01T06:44:32.957Z,15.50
2023-05-01T06:47:03.501Z,15.60
2023-05-01T06:49:31.904Z,15.60
2023-05-01T06:52:02.272Z,15.70
2023-05-01T06:54:31.053Z,15.70
2023-05-01T06:56:59.762Z,15.80
2023-05-01T06:59:28.144Z,15.80
2023-05-01T07:01:56.637Z,15.90
2023-05-01T07:04:25.246Z,15.90
2023-05-01T07:06:53.734Z,16.00
2023-05-01T07:09:23.809Z,16.00
2023-05-01T07:11:52.146Z,16.10
2023-05-01T07:14:20.514Z,16.10
2023-05-01T07:16:49.171Z,16.20
2023-05-01T07:19:17.577Z,16.30
2023-05-01T07:21:45.935Z,16.30
2023-05-01T07:24:14.395Z,16.40
2023-05-01T07:26:44.614Z,16.40
2023-05-01T07:29:13.293Z,16.50
2023-05-01T07:31:41.862Z,16.50
2023-05-01T07:34:10.222Z,16.60
2023-05-01T07:36:39.051Z,16.60
2023-05-01T07:39:07.750Z,16.70
2023-05-01T07:41:36.212Z,16.70
2023-05-01T07:44:06.136Z,16.80
2023-05-01T07:46:35.273Z,16.80
2023-05-01T07:49:04.310Z,16.90
2023-05-01T07:51:33.330Z,16.90
2023-05-01T07:54:04.764Z,17.00
2023-05-01T07:56:33.423Z,17.10
2023-05-01T07:59:02.028Z,17.10
2023-05-01T08:01:34.183Z,17.10
2023-05-01T08:04:02.905Z,17.20
2023-05-01T08:06:32.862Z,17.30
2023-05-01T08:09:01.200Z,17.30
2023-05-01T08:11:29.894Z,17.40
2023-05-01T08:13:58.284Z,17.40
2023-05-01T08:16:26.891Z,17.50
2023-05-01T08:18:56.731Z,17.50
2023-05-01T08:21:25.085Z,17.60
2023-05-01T08:23:56.216Z,17.60
2023-05-01T08:26:24.968Z,17.70
2023-05-01T08:28:53.403Z,17.70
2023-05-01T08:31:22.747Z,17.70
2023-05-01T08:33:51.418Z,17.80
2023-05-01T08:36:21.534Z,17.80
2023-05-01T08:38:50.381Z,17.90
2023-05-01T08:41:23.800Z,17.90
2023-05-01T08:43:52.696Z,18.00
2023-05-01T08:46:28.041Z,18.00
2023-05-01T08:48:59.490Z,18.10
2023-05-01T08:51:33.340Z,18.10
2023-05-01T08:54:04.837Z,18.20
2023-05-01T08:56:33.724Z,18.20
2023-05-01T08:59:05.267Z,18.20
2023-05-01T09:01:35.065Z,18.30
2023-05-01T09:04:05.064Z,18.30
2023-05-01T09:06:34.957Z,18.30
2023-05-01T09:09:03.682Z,18.40
2023-05-01T09:11:32.181Z,18.40
2023-05-01T09:14:05.425Z,18.50
2023-05-01T09:16:33.997Z,18.50
2023-05-01T09:19:02.462Z,18.50
2023-05-01T09:21:31.990Z,18.60
2023-05-01T09:24:02.869Z,18.60
2023-05-01T09:26:31.600Z,18.60
2023-05-01T09:29:00.573Z,18.70
2023-05-01T09:31:32.386Z,18.70
2023-05-01T09:34:03.628Z,18.80
2023-05-01T09:36:34.239Z,18.90
2023-05-01T09:39:04.611Z,18.90
2023-05-01T09:41:33.945Z,19.00
2023-05-01T09:44:02.736Z,19.10
2023-05-01T09:46:43.765Z,19.10
2023-05-01T09:49:12.230Z,19.20
2023-05-01T09:51:40.729Z,19.30
2023-05-01T09:54:20.879Z,19.40
2023-05-01T09:56:51.055Z,19.50
2023-05-01T09:59:21.726Z,19.50
2023-05-01T10:01:52.713Z,19.60
2023-05-01T10:04:32.023Z,19.70
2023-05-01T10:07:02.599Z,19.70
2023-05-01T10:09:32.841Z,19.70
2023-05-01T10:12:01.210Z,19.80
2023-05-01T10:14:30.489Z,19.80
2023-05-01T10:16:59.308Z,19.90
2023-05-01T10:19:27.920Z,19.90
2023-05-01T10:21:56.543Z,20.00
2023-05-01T10:24:24.873Z,20.00
2023-05-01T10:26:55.824Z,20.10
2023-05-01T10:29:25.606Z,20.10
2023-05-01T10:31:54.149Z,20.20
2023-05-01T10:34:28.165Z,20.20
2023-05-01T10:37:02.091Z,20.30
2023-05-01T10:39:35.174Z,20.30
2023-05-01T10:42:06.299Z,20.40
2023-05-01T10:44:35.882Z,20.40
2023-05-01T10:47:48.029Z,20.50
2023-05-01T10:50:17.972Z,20.50
2023-05-01T10:53:18.779Z,20.50
2023-05-01T10:55:49.493Z,20.60
2023-05-01T10:59:04.590Z,20.60
2023-05-01T11:01:36.146Z,20.60
2023-05-01T11:04:08.102Z,20.60
2023-05-01T11:06:37.821Z,20.60
2023-05-01T11:09:41.189Z,20.60
2023-05-01T11:12:11.534Z,20.60
2023-05-01T11:15:15.068Z,20.60
2023-05-01T11:17:47.686Z,20.60
2023-05-01T11:20:50.989Z,20.70
2023-05-01T11:23:25.565Z,20.60
2023-05-01T11:26:06.243Z,20.70
2023-05-01T11:28:35.668Z,20.60
2023-05-01T11:31:07.750Z,20.60
2023-05-01T11:33:36.167Z,20.60
2023-05-01T11:36:05.184Z,20.60
2023-05-01T11:38:33.640Z,20.60
2023-05-01T11:41:04.581Z,20.70
2023-05-01T11:43:33.199Z,20.70
2023-05-01T11:46:04.740Z,20.70
2023-05-01T11:48:34.552Z,20.70
2023-05-01T11:51:13.741Z,20.70
2023-05-01T11:53:42.277Z,20.70
2023-05-01T11:56:26.559Z,20.80
2023-05-01T11:58:57.519Z,20.80
2023-05-01T12:01:36.092Z,20.80
2023-05-01T12:04:07.965Z,20.90
2023-05-01T12:06:44.077Z,20.90
2023-05-01T12:09:17.507Z,20.90
2023-05-01T12:11:47.436Z,20.90
2023-05-01T12:14:16.823Z,21.00
2023-05-01T12:16:46.481Z,21.00
2023-05-01T12:19:17.556Z,21.10
2023-05-01T12:21:46.563Z,21.10
2023-05-01T12:24:17.533Z,21.10
2023-05-01T12:26:47.094Z,21.20
2023-05-01T12:29:15.524Z,21.20
2023-05-01T12:31:49.466Z,21.20
2023-05-01T12:34:19.822Z,21.20
2023-05-01T12:36:55.329Z,21.20
2023-05-01T12:39:24.700Z,21.30
2023-05-01T12:41:54.553Z,21.30
2023-05-01T12:44:25.382Z,21.30
2023-05-01T12:47:00.461Z,21.20
2023-05-01T12:49:31.992Z,21.20
2023-05-01T12:52:03.712Z,21.30
2023-05-01T12:54:34.046Z,21.30
2023-05-01T12:57:11.777Z,21.20
2023-05-01T12:59:41.942Z,21.20
2023-05-01T13:02:12.534Z,21.20
2023-05-01T13:04:43.234Z,21.20
2023-05-01T13:07:12.972Z,21.20
2023-05-01T13:09:41.716Z,21.30
2023-05-01T13:12:10.575Z,21.30
2023-05-01T13:14:40.940Z,21.30
2023-05-01T13:17:11.762Z,21.30
2023-05-01T13:19:41.688Z,21.30
2023-05-01T13:22:10.236Z,21.40
2023-05-01T13:24:40.295Z,21.30
2023-05-01T13:27:10.461Z,21.30
2023-05-01T13:29:39.923Z,21.40
2023-05-01T13:32:13.459Z,21.40
2023-05-01T13:34:45.095Z,21.40
2023-05-01T13:37:14.542Z,21.40
2023-05-01T13:39:43.628Z,21.50
2023-05-01T13:42:13.953Z,21.50
2023-05-01T13:44:46.258Z,21.50
2023-05-01T13:47:18.047Z,21.40
2023-05-01T13:49:48.785Z,21.40
2023-05-01T13:52:19.201Z,21.50
2023-05-01T13:54:48.872Z,21.50
2023-05-01T13:57:18.099Z,21.50
2023-05-01T13:59:48.638Z,21.50
2023-05-01T14:02:22.726Z,21.50
2023-05-01T14:04:52.679Z,21.50
2023-05-01T14:07:23.478Z,21.50
2023-05-01T14:09:55.958Z,21.50
2023-05-01T14:12:29.906Z,21.50
2023-05-01T14:15:00.116Z,21.50
2023-05-01T14:17:33.626Z,21.60
2023-05-01T14:20:04.845Z,21.60
2023-05-01T14:22:43.992Z,21.60
2023-05-01T14:25:25.611Z,21.60
2023-05-01T14:27:55.130Z,21.60
2023-05-01T14:30:33.283Z,21.60
2023-05-01T14:33:03.722Z,21.60
2023-05-01T14:35:35.393Z,21.70
2023-05-01T14:38:10.850Z,21.80
2023-05-01T14:40:42.201Z,22.00
2023-05-01T14:43:12.217Z,22.00
2023-05-01T14:45:43.698Z,22.10
2023-05-01T14:48:12.961Z,22.20
2023-05-01T14:50:44.025Z,22.20
2023-05-01T14:53:13.059Z,22.20
2023-05-01T14:55:43.232Z,22.20
2023-05-01T14:58:11.791Z,22.20
2023-05-01T15:00:40.196Z,22.20
2023-05-01T15:03:08.752Z,22.10
2023-05-01T15:05:38.419Z,22.10
2023-05-01T15:08:10.199Z,22.10
2023-05-01T15:10:38.743Z,22.00
2023-05-01T15:13:07.350Z,22.00
2023-05-01T15:15:35.769Z,22.00
2023-05-01T15:18:04.812Z,21.90
2023-05-01T15:20:33.769Z,21.90
2023-05-01T15:23:02.081Z,21.80
2023-05-01T15:25:32.295Z,21.80
2023-05-01T15:28:00.687Z,21.70
2023-05-01T15:30:29.183Z,21.60
2023-05-01T15:32:57.765Z,21.50
2023-05-01T15:35:26.547Z,21.40
2023-05-01T15:37:56.504Z,21.30
2023-05-01T15:40:25.277Z,21.20
2023-05-01T15:42:55.682Z,21.00
2023-05-01T15:45:24.303Z,20.90
2023-05-01T15:47:52.666Z,20.80
2023-05-01T15:50:22.142Z,20.70
2023-05-01T15:52:51.304Z,20.60
2023-05-01T15:55:21.693Z,20.50
2023-05-01T15:57:50.093Z,20.40
2023-05-01T16:00:21.967Z,20.20
2023-05-01T16:02:50.592Z,20.10
2023-05-01T16:05:22.443Z,20.00
2023-05-01T16:07:55.078Z,19.90
2023-05-01T16:10:25.449Z,19.80
2023-05-01T16:12:54.778Z,19.70
2023-05-01T16:15:25.083Z,19.60
2023-05-01T16:17:54.993Z,19.50
2023-05-01T16:20:25.102Z,19.50
2023-05-01T16:22:53.653Z,19.40
2023-05-01T16:25:22.271Z,19.40
2023-05-01T16:27:50.819Z,19.30
2023-05-01T16:30:19.364Z,19.30
2023-05-01T16:32:49.437Z,19.20
2023-05-01T16:35:19.391Z,19.10
2023-05-01T16:37:48.010Z,19.00
2023-05-01T16:40:19.157Z,18.90
2023-05-01T16:42:52.574Z,18.80
2023-05-01T16:45:21.288Z,18.70
2023-05-01T16:47:51.706Z,18.60
2023-05-01T16:50:23.151Z,18.60
2023-05-01T16:52:51.835Z,18.60
2023-05-01T16:55:20.178Z,18.60
2023-05-01T16:57:49.194Z,18.60
2023-05-01T17:00:18.499Z,18.60
2023-05-01T17:02:49.669Z,18.60
2023-05-01T17:05:20.521Z,18.70
2023-05-01T17:07:49.201Z,18.70
2023-05-01T17:10:17.817Z,18.70
2023-05-01T17:12:46.268Z,18.70
2023-05-01T17:15:14.970Z,18.70
2023-05-01T17:17:45.391Z,18.70
2023-05-01T17:20:14.908Z,18.80
2023-05-01T17:22:45.663Z,18.80
2023-05-01T17:25:15.142Z,18.80
2023-05-01T17:27:43.688Z,18.80
2023-05-01T17:30:12.887Z,18.80
2023-05-01T17:32:41.861Z,18.80
2023-05-01T17:35:10.989Z,18.80
2023-05-01T17:37:40.735Z,18.90
2023-05-01T17:40:12.711Z,18.90
2023-05-01T17:42:41.874Z,18.90
2023-05-01T17:45:11.527Z,18.90
2023-05-01T17:47:42.936Z,18.90
2023-05-01T17:50:13.327Z,18.90
2023-05-01T17:52:43.359Z,18.90
2023-05-01T17:55:17.157Z,18.90
2023-05-01T17:57:48.146Z,18.90
2023-05-01T18:00:17.723Z,18.90
2023-05-01T18:02:47.598Z,18.90
2023-05-01T18:05:16.331Z,19.00
2023-05-01T18:07:44.745Z,19.00
2023-05-01T18:10:15.176Z,19.00
2023-05-01T18:12:45.738Z,19.00
2023-05-01T18:15:19.365Z,19.00
2023-05-01T18:17:51.284Z,18.90
2023-05-01T18:20:19.782Z,18.90
2023-05-01T18:22:48.405Z,18.90
2023-05-01T18:25:20.054Z,18.80
2023-05-01T18:27:49.171Z,18.80
2023-05-01T18:30:18.006Z,18.80
2023-05-01T18:32:48.833Z,18.80
2023-05-01T18:35:19.076Z,18.80
2023-05-01T18:37:47.783Z,18.80
2023-05-01T18:40:18.081Z,18.80
2023-05-01T18:42:46.949Z,18.80
2023-05-01T18:45:15.421Z,18.80
2023-05-01T18:47:43.901Z,18.80
2023-05-01T18:50:13.268Z,18.80
2023-05-01T18:52:43.423Z,18.80
2023-05-01T18:55:12.397Z,18.80
2023-05-01T18:57:43.720Z,18.70
2023-05-01T19:00:17.588Z,18.70
2023-05-01T19:02:51.518Z,18.70
2023-05-01T19:05:22.770Z,18.80
2023-05-01T19:07:51.293Z,18.70
2023-05-01T19:10:19.897Z,18.70
2023-05-01T19:12:50.923Z,18.70
2023-05-01T19:15:19.625Z,18.70
2023-05-01T19:17:48.158Z,18.70
2023-05-01T19:20:17.083Z,18.60
2023-05-01T19:22:45.513Z,18.60
2023-05-01T19:25:14.182Z,18.60
2023-05-01T19:27:43.034Z,18.60
2023-05-01T19:30:13.606Z,18.50
2023-05-01T19:32:42.008Z,18.50
2023-05-01T19:35:11.726Z,18.50
2023-05-01T19:37:40.802Z,18.40
2023-05-01T19:40:10.607Z,18.40
2023-05-01T19:42:39.075Z,18.40
2023-05-01T19:45:09.099Z,18.30
2023-05-01T19:47:39.088Z,18.30
2023-05-01T19:50:09.446Z,18.30
2023-05-01T19:52:38.134Z,18.30
2023-05-01T19:55:08.294Z,18.30
2023-05-01T19:57:36.681Z,18.30
2023-05-01T20:00:07.015Z,18.30
2023-05-01T20:02:39.899Z,18.20
2023-05-01T20:05:09.335Z,18.20
2023-05-01T20:07:38.053Z,18.20
2023-05-01T20:10:07.489Z,18.20
2023-05-01T20:12:35.872Z,18.20
2023-05-01T20:15:04.995Z,18.20
2023-05-01T20:17:34.149Z,18.10
2023-05-01T20:20:04.150Z,18.10
2023-05-01T20:22:32.632Z,18.10
2023-05-01T20:25:01.093Z,18.10
2023-05-01T20:27:29.559Z,18.10
2023-05-01T20:29:58.225Z,18.10
2023-05-01T20:32:26.767Z,18.10
2023-05-01T20:34:56.034Z,18.10
2023-05-01T20:37:25.848Z,18.10
2023-05-01T20:39:54.271Z,18.00
2023-05-01T20:42:22.788Z,18.00
2023-05-01T20:44:51.170Z,18.00
2023-05-01T20:47:19.837Z,18.00
2023-05-01T20:49:49.078Z,18.00
2023-05-01T20:52:17.429Z,17.90
2023-05-01T20:54:47.268Z,17.90
2023-05-01T20:57:17.608Z,17.90
2023-05-01T20:59:50.942Z,17.90
2023-05-01T21:02:19.307Z,17.90
2023-05-01T21:04:47.637Z,17.90
2023-05-01T21:07:16.658Z,17.90
2023-05-01T21:09:47.221Z,17.80
2023-05-01T21:12:16.267Z,17.90
2023-05-01T21:14:44.627Z,17.80
2023-05-01T21:17:13.632Z,17.80
2023-05-01T21:19:46.569Z,17.80
2023-05-01T21:22:17.771Z,17.80
2023-05-01T21:24:54.447Z,17.80
2023-05-01T21:27:24.195Z,17.80
2023-05-01T21:29:57.704Z,17.80
2023-05-01T21:32:32.468Z,17.80
2023-05-01T21:35:01.432Z,17.80
2023-05-01T21:37:30.143Z,17.80
2023-05-01T21:40:02.246Z,17.80
2023-05-01T21:42:32.565Z,17.80
2023-05-01T21:45:01.093Z,17.80
2023-05-01T21:47:29.921Z,17.80
2023-05-01T21:49:59.304Z,17.80
2023-05-01T21:52:30.346Z,17.80
2023-05-01T21:55:00.184Z,17.70
2023-05-01T21:57:30.577Z,17.70
2023-05-01T22:00:01.230Z,17.70
2023-05-01T22:02:38.580Z,17.70
2023-05-01T22:05:07.896Z,17.60
2023-05-01T22:07:38.426Z,17.60
2023-05-01T22:10:12.009Z,17.60
2023-05-01T22:12:41.403Z,17.60
2023-05-01T22:15:11.893Z,17.50
2023-05-01T22:17:41.460Z,17.50
2023-05-01T22:20:10.722Z,17.50
2023-05-01T22:22:42.334Z,17.50
2023-05-01T22:25:13.147Z,17.50
2023-05-01T22:27:42.080Z,17.40
2023-05-01T22:30:12.289Z,17.40
2023-05-01T22:32:40.959Z,17.40
2023-05-01T22:35:10.260Z,17.40
2023-05-01T22:37:38.635Z,17.40
2023-05-01T22:40:09.256Z,17.40
2023-05-01T22:42:39.663Z,17.30
2023-05-01T22:45:08.956Z,17.30
2023-05-01T22:47:37.641Z,17.30
2023-05-01T22:50:07.081Z,17.30
2023-05-01T22:52:35.419Z,17.20
2023-05-01T22:55:03.838Z,17.20
2023-05-01T22:57:32.872Z,17.20
2023-05-01T23:00:02.939Z,17.20
2023-05-01T23:02:31.488Z,17.20
2023-05-01T23:05:00.193Z,17.20
2023-05-01T23:07:28.775Z,17.20
2023-05-01T23:09:57.493Z,17.20
2023-05-01T23:12:27.670Z,17.10
2023-05-01T23:14:56.653Z,17.10
2023-05-01T23:17:35.146Z,17.10
2023-05-01T23:20:04.902Z,17.10
2023-05-01T23:22:38.201Z,17.10
2023-05-01T23:25:08.162Z,17.00
2023-05-01T23:27:42.826Z,17.00
2023-05-01T23:30:13.098Z,17.00
2023-05-01T23:32:43.860Z,16.90
2023-05-01T23:35:15.817Z,16.90
2023-05-01T23:37:44.479Z,16.80
2023-05-01T23:40:13.187Z,16.80
2023-05-01T23:42:41.920Z,16.80
2023-05-01T23:45:10.776Z,16.80
2023-05-01T23:47:39.881Z,16.80
2023-05-01T23:50:11.340Z,16.70
2023-05-01T23:52:39.796Z,16.80
2023-05-01T23:55:08.905Z,16.80
2023-05-01T23:57:37.362Z,16.80
